sensor_id;sensor_type;location;lat;lon;timestamp;P1;durP1;ratioP1;P2;durP2;ratioP2
14768;SDS011;7476;49.404;11.152;2023-06-22T00:02:20;10.17;;;9.17;;
14768;SDS011;7476;49.404;11.152;2023-06-22T00:04:47;9.90;;;8.70;;
14768;SDS011;7476;49.404;11.152;2023-06-22T00:07:15;12.97;;;8.83;;
14768;SDS011;7476;49.404;11.152;2023-06-22T00:09:42;9.93;;;8.70;;
14768;SDS011;7476;49.404;11.152;2023-06-22T00:12:08;10.53;;;9.37;;
14768;SDS011;7476;49.404;11.152;2023-06-22T00:14:35;12.83;;;9.00;;
14768;SDS011;7476;49.404;11.152;2023-06-22T00:17:02;10.30;;;9.10;;
14768;SDS011;7476;49.404;11.152;2023-06-22T00:19:29;9.53;;;8.63;;
14768;SDS011;7476;49.404;11.152;2023-06-22T00:21:55;9.67;;;8.67;;
14768;SDS011;7476;49.404;11.152;2023-06-22T00:24:26;10.50;;;9.37;;
14768;SDS011;7476;49.404;11.152;2023-06-22T00:26:53;9.63;;;8.63;;
14768;SDS011;7476;49.404;11.152;2023-06-22T00:29:19;10.93;;;9.30;;
14768;SDS011;7476;49.404;11.152;2023-06-22T00:31:46;10.13;;;9.13;;
14768;SDS011;7476;49.404;11.152;2023-06-22T00:34:12;10.50;;;9.20;;
14768;SDS011;7476;49.404;11.152;2023-06-22T00:36:39;11.27;;;8.80;;
14768;SDS011;7476;49.404;11.152;2023-06-22T00:39:06;10.43;;;9.30;;
14768;SDS011;7476;49.404;11.152;2023-06-22T00:41:34;12.57;;;9.30;;
14768;SDS011;7476;49.404;11.152;2023-06-22T00:44:01;10.10;;;9.10;;
14768;SDS011;7476;49.404;11.152;2023-06-22T00:46:28;10.83;;;9.70;;
14768;SDS011;7476;49.404;11.152;2023-06-22T00:48:55;11.27;;;9.87;;
14768;SDS011;7476;49.404;11.152;2023-06-22T00:51:22;11.17;;;10.07;;
14768;SDS011;7476;49.404;11.152;2023-06-22T00:53:49;10.40;;;9.20;;
14768;SDS011;7476;49.404;11.152;2023-06-22T00:56:16;11.57;;;9.13;;
14768;SDS011;7476;49.404;11.152;2023-06-22T00:58:45;9.90;;;8.90;;
14768;SDS011;7476;49.404;11.152;2023-06-22T01:01:12;10.23;;;9.13;;
14768;SDS011;7476;49.404;11.152;2023-06-22T01:03:40;10.63;;;9.53;;
14768;SDS011;7476;49.404;11.152;2023-06-22T01:06:07;9.40;;;8.57;;
14768;SDS011;7476;49.404;11.152;2023-06-22T01:08:39;10.07;;;9.07;;
14768;SDS011;7476;49.404;11.152;2023-06-22T01:11:11;9.90;;;8.77;;
14768;SDS011;7476;49.404;11.152;2023-06-22T01:13:45;10.23;;;9.23;;
14768;SDS011;7476;49.404;11.152;2023-06-22T01:16:16;9.70;;;8.70;;
14768;SDS011;7476;49.404;11.152;2023-06-22T01:18:49;10.37;;;9.23;;
14768;SDS011;7476;49.404;11.152;2023-06-22T01:21:19;10.97;;;9.73;;
14768;SDS011;7476;49.404;11.152;2023-06-22T01:23:50;12.87;;;10.37;;
14768;SDS011;7476;49.404;11.152;2023-06-22T01:26:25;11.23;;;10.03;;
14768;SDS011;7476;49.404;11.152;2023-06-22T01:29:04;10.17;;;9.20;;
14768;SDS011;7476;49.404;11.152;2023-06-22T01:31:32;11.00;;;9.83;;
14768;SDS011;7476;49.404;11.152;2023-06-22T01:34:01;10.17;;;9.13;;
14768;SDS011;7476;49.404;11.152;2023-06-22T01:36:31;12.30;;;10.57;;
14768;SDS011;7476;49.404;11.152;2023-06-22T01:38:59;10.10;;;9.10;;
14768;SDS011;7476;49.404;11.152;2023-06-22T01:41:29;10.60;;;9.30;;
14768;SDS011;7476;49.404;11.152;2023-06-22T01:43:57;10.03;;;8.90;;
14768;SDS011;7476;49.404;11.152;2023-06-22T01:46:26;10.83;;;9.73;;
14768;SDS011;7476;49.404;11.152;2023-06-22T01:48:53;10.23;;;9.23;;
14768;SDS011;7476;49.404;11.152;2023-06-22T01:51:21;10.83;;;9.83;;
14768;SDS011;7476;49.404;11.152;2023-06-22T01:53:47;10.60;;;9.57;;
14768;SDS011;7476;49.404;11.152;2023-06-22T01:56:15;10.87;;;9.77;;
14768;SDS011;7476;49.404;11.152;2023-06-22T01:58:45;10.57;;;9.50;;
14768;SDS011;7476;49.404;11.152;2023-06-22T02:01:18;11.47;;;9.83;;
14768;SDS011;7476;49.404;11.152;2023-06-22T02:03:53;10.50;;;9.43;;
14768;SDS011;7476;49.404;11.152;2023-06-22T02:06:29;9.60;;;8.63;;
14768;SDS011;7476;49.404;11.152;2023-06-22T02:09:02;10.37;;;9.37;;
14768;SDS011;7476;49.404;11.152;2023-06-22T02:11:33;10.43;;;9.37;;
14768;SDS011;7476;49.404;11.152;2023-06-22T02:14:01;10.50;;;9.43;;
14768;SDS011;7476;49.404;11.152;2023-06-22T02:16:29;10.40;;;9.33;;
14768;SDS011;7476;49.404;11.152;2023-06-22T02:18:59;10.03;;;9.10;;
14768;SDS011;7476;49.404;11.152;2023-06-22T02:21:28;8.83;;;7.83;;
14768;SDS011;7476;49.404;11.152;2023-06-22T02:23:55;11.20;;;9.50;;
14768;SDS011;7476;49.404;11.152;2023-06-22T02:26:21;10.00;;;8.93;;
14768;SDS011;7476;49.404;11.152;2023-06-22T02:28:50;10.30;;;9.27;;
14768;SDS011;7476;49.404;11.152;2023-06-22T02:31:17;10.20;;;9.20;;
14768;SDS011;7476;49.404;11.152;2023-06-22T02:33:44;10.20;;;9.03;;
14768;SDS011;7476;49.404;11.152;2023-06-22T02:36:12;10.77;;;9.07;;
14768;SDS011;7476;49.404;11.152;2023-06-22T02:38:40;10.40;;;9.40;;
14768;SDS011;7476;49.404;11.152;2023-06-22T02:41:13;9.20;;;8.30;;
14768;SDS011;7476;49.404;11.152;2023-06-22T02:43:43;10.83;;;9.73;;
14768;SDS011;7476;49.404;11.152;2023-06-22T02:46:10;10.87;;;9.57;;
14768;SDS011;7476;49.404;11.152;2023-06-22T02:48:37;11.50;;;10.27;;
14768;SDS011;7476;49.404;11.152;2023-06-22T02:51:04;12.83;;;10.80;;
14768;SDS011;7476;49.404;11.152;2023-06-22T02:53:32;11.53;;;10.33;;
14768;SDS011;7476;49.404;11.152;2023-06-22T02:55:59;14.73;;;10.93;;
14768;SDS011;7476;49.404;11.152;2023-06-22T02:58:26;14.83;;;11.33;;
14768;SDS011;7476;49.404;11.152;2023-06-22T03:00:53;12.57;;;11.27;;
14768;SDS011;7476;49.404;11.152;2023-06-22T03:03:20;11.80;;;9.73;;
14768;SDS011;7476;49.404;11.152;2023-06-22T03:05:46;12.07;;;10.97;;
14768;SDS011;7476;49.404;11.152;2023-06-22T03:08:13;11.93;;;10.73;;
14768;SDS011;7476;49.404;11.152;2023-06-22T03:10:41;11.23;;;10.13;;
14768;SDS011;7476;49.404;11.152;2023-06-22T03:13:08;12.50;;;10.87;;
14768;SDS011;7476;49.404;11.152;2023-06-22T03:15:34;13.33;;;10.73;;
14768;SDS011;7476;49.404;11.152;2023-06-22T03:18:01;10.73;;;9.63;;
14768;SDS011;7476;49.404;11.152;2023-06-22T03:20:28;11.03;;;9.97;;
14768;SDS011;7476;49.404;11.152;2023-06-22T03:22:58;10.83;;;9.83;;
14768;SDS011;7476;49.404;11.152;2023-06-22T03:25:25;10.90;;;9.80;;
14768;SDS011;7476;49.404;11.152;2023-06-22T03:27:53;11.67;;;10.10;;
14768;SDS011;7476;49.404;11.152;2023-06-22T03:30:19;10.97;;;9.80;;
14768;SDS011;7476;49.404;11.152;2023-06-22T03:32:46;10.43;;;9.33;;
14768;SDS011;7476;49.404;11.152;2023-06-22T03:35:13;10.97;;;9.80;;
14768;SDS011;7476;49.404;11.152;2023-06-22T03:37:39;11.40;;;10.20;;
14768;SDS011;7476;49.404;11.152;2023-06-22T03:40:07;10.73;;;9.70;;
14768;SDS011;7476;49.404;11.152;2023-06-22T03:42:34;11.37;;;9.90;;
14768;SDS011;7476;49.404;11.152;2023-06-22T03:45:02;11.33;;;9.70;;
14768;SDS011;7476;49.404;11.152;2023-06-22T03:47:29;11.17;;;10.07;;
14768;SDS011;7476;49.404;11.152;2023-06-22T03:49:56;11.77;;;10.23;;
14768;SDS011;7476;49.404;11.152;2023-06-22T03:52:22;11.77;;;10.63;;
14768;SDS011;7476;49.404;11.152;2023-06-22T03:54:50;13.53;;;10.63;;
14768;SDS011;7476;49.404;11.152;2023-06-22T03:57:17;12.57;;;11.07;;
14768;SDS011;7476;49.404;11.152;2023-06-22T03:59:43;11.67;;;10.47;;
14768;SDS011;7476;49.404;11.152;2023-06-22T04:02:11;10.77;;;9.67;;
14768;SDS011;7476;49.404;11.152;2023-06-22T04:04:38;13.03;;;11.57;;
14768;SDS011;7476;49.404;11.152;2023-06-22T04:07:05;12.50;;;11.20;;
14768;SDS011;7476;49.404;11.152;2023-06-22T04:09:32;14.17;;;10.70;;
14768;SDS011;7476;49.404;11.152;2023-06-22T04:11:59;12.50;;;10.70;;
14768;SDS011;7476;49.404;11.152;2023-06-22T04:14:26;12.07;;;10.87;;
14768;SDS011;7476;49.404;11.152;2023-06-22T04:16:53;12.03;;;10.87;;
14768;SDS011;7476;49.404;11.152;2023-06-22T04:19:21;12.77;;;11.30;;
14768;SDS011;7476;49.404;11.152;2023-06-22T04:21:48;11.80;;;10.43;;
14768;SDS011;7476;49.404;11.152;2023-06-22T04:24:15;13.20;;;11.60;;
14768;SDS011;7476;49.404;11.152;2023-06-22T04:26:41;11.57;;;10.37;;
14768;SDS011;7476;49.404;11.152;2023-06-22T04:29:10;12.37;;;10.73;;
14768;SDS011;7476;49.404;11.152;2023-06-22T04:31:37;11.07;;;9.93;;
14768;SDS011;7476;49.404;11.152;2023-06-22T04:34:04;12.60;;;11.30;;
14768;SDS011;7476;49.404;11.152;2023-06-22T04:36:34;12.70;;;11.40;;
14768;SDS011;7476;49.404;11.152;2023-06-22T04:39:03;11.63;;;10.50;;
14768;SDS011;7476;49.404;11.152;2023-06-22T04:41:34;13.17;;;11.43;;
14768;SDS011;7476;49.404;11.152;2023-06-22T04:44:07;10.30;;;9.37;;
14768;SDS011;7476;49.404;11.152;2023-06-22T04:46:37;9.93;;;8.93;;
14768;SDS011;7476;49.404;11.152;2023-06-22T04:49:06;10.67;;;9.57;;
14768;SDS011;7476;49.404;11.152;2023-06-22T04:51:36;10.47;;;9.40;;
14768;SDS011;7476;49.404;11.152;2023-06-22T04:54:05;9.53;;;8.63;;
14768;SDS011;7476;49.404;11.152;2023-06-22T04:56:32;9.53;;;8.53;;
14768;SDS011;7476;49.404;11.152;2023-06-22T04:58:59;9.73;;;8.83;;
14768;SDS011;7476;49.404;11.152;2023-06-22T05:01:26;9.10;;;8.10;;
14768;SDS011;7476;49.404;11.152;2023-06-22T05:03:53;9.50;;;8.50;;
14768;SDS011;7476;49.404;11.152;2023-06-22T05:06:21;8.63;;;7.83;;
14768;SDS011;7476;49.404;11.152;2023-06-22T05:08:51;9.67;;;8.67;;
14768;SDS011;7476;49.404;11.152;2023-06-22T05:11:22;9.03;;;8.20;;
14768;SDS011;7476;49.404;11.152;2023-06-22T05:13:49;8.97;;;8.07;;
14768;SDS011;7476;49.404;11.152;2023-06-22T05:16:15;8.83;;;7.93;;
14768;SDS011;7476;49.404;11.152;2023-06-22T05:18:42;8.60;;;7.83;;
14768;SDS011;7476;49.404;11.152;2023-06-22T05:21:09;8.53;;;7.73;;
14768;SDS011;7476;49.404;11.152;2023-06-22T05:23:36;8.20;;;7.40;;
14768;SDS011;7476;49.404;11.152;2023-06-22T05:26:04;7.97;;;7.17;;
14768;SDS011;7476;49.404;11.152;2023-06-22T05:28:34;8.43;;;7.63;;
14768;SDS011;7476;49.404;11.152;2023-06-22T05:31:01;7.87;;;7.17;;
14768;SDS011;7476;49.404;11.152;2023-06-22T05:33:27;8.37;;;7.57;;
14768;SDS011;7476;49.404;11.152;2023-06-22T05:35:54;7.80;;;7.10;;
14768;SDS011;7476;49.404;11.152;2023-06-22T05:38:20;8.47;;;6.67;;
14768;SDS011;7476;49.404;11.152;2023-06-22T05:40:47;7.60;;;6.90;;
14768;SDS011;7476;49.404;11.152;2023-06-22T05:43:15;7.70;;;6.97;;
14768;SDS011;7476;49.404;11.152;2023-06-22T05:45:42;7.67;;;6.87;;
14768;SDS011;7476;49.404;11.152;2023-06-22T05:48:08;8.83;;;6.80;;
14768;SDS011;7476;49.404;11.152;2023-06-22T05:50:35;8.37;;;7.57;;
14768;SDS011;7476;49.404;11.152;2023-06-22T05:53:02;10.00;;;8.17;;
14768;SDS011;7476;49.404;11.152;2023-06-22T05:55:29;8.50;;;7.63;;
14768;SDS011;7476;49.404;11.152;2023-06-22T05:57:56;8.53;;;7.63;;
14768;SDS011;7476;49.404;11.152;2023-06-22T06:00:24;7.47;;;6.67;;
14768;SDS011;7476;49.404;11.152;2023-06-22T06:02:50;8.10;;;7.30;;
14768;SDS011;7476;49.404;11.152;2023-06-22T06:05:17;7.90;;;7.10;;
14768;SDS011;7476;49.404;11.152;2023-06-22T06:07:44;7.93;;;7.13;;
14768;SDS011;7476;49.404;11.152;2023-06-22T06:10:12;7.43;;;6.73;;
14768;SDS011;7476;49.404;11.152;2023-06-22T06:12:39;9.87;;;6.87;;
14768;SDS011;7476;49.404;11.152;2023-06-22T06:15:06;8.77;;;6.93;;
14768;SDS011;7476;49.404;11.152;2023-06-22T06:17:34;7.10;;;6.50;;
14768;SDS011;7476;49.404;11.152;2023-06-22T06:20:01;7.40;;;6.70;;
14768;SDS011;7476;49.404;11.152;2023-06-22T06:22:32;7.50;;;6.70;;
14768;SDS011;7476;49.404;11.152;2023-06-22T06:24:58;7.90;;;6.80;;
14768;SDS011;7476;49.404;11.152;2023-06-22T06:27:26;7.70;;;6.40;;
14768;SDS011;7476;49.404;11.152;2023-06-22T06:29:54;8.03;;;7.23;;
14768;SDS011;7476;49.404;11.152;2023-06-22T06:32:20;7.33;;;6.63;;
14768;SDS011;7476;49.404;11.152;2023-06-22T06:34:48;7.10;;;6.43;;
14768;SDS011;7476;49.404;11.152;2023-06-22T06:37:16;7.35;;;6.70;;
14768;SDS011;7476;49.404;11.152;2023-06-22T06:39:43;6.75;;;6.15;;
14768;SDS011;7476;49.404;11.152;2023-06-22T06:42:10;7.00;;;6.30;;
14768;SDS011;7476;49.404;11.152;2023-06-22T06:44:37;7.50;;;6.07;;
14768;SDS011;7476;49.404;11.152;2023-06-22T06:47:03;6.70;;;6.10;;
14768;SDS011;7476;49.404;11.152;2023-06-22T06:49:30;6.95;;;6.25;;
14768;SDS011;7476;49.404;11.152;2023-06-22T06:51:58;7.55;;;5.95;;
14768;SDS011;7476;49.404;11.152;2023-06-22T06:54:25;6.82;;;6.15;;
14768;SDS011;7476;49.404;11.152;2023-06-22T06:56:52;7.85;;;6.40;;
14768;SDS011;7476;49.404;11.152;2023-06-22T06:59:19;6.35;;;5.72;;
14768;SDS011;7476;49.404;11.152;2023-06-22T07:01:45;8.13;;;6.18;;
14768;SDS011;7476;49.404;11.152;2023-06-22T07:04:13;6.45;;;5.88;;
14768;SDS011;7476;49.404;11.152;2023-06-22T07:06:40;8.18;;;6.20;;
14768;SDS011;7476;49.404;11.152;2023-06-22T07:09:09;6.95;;;6.25;;
14768;SDS011;7476;49.404;11.152;2023-06-22T07:11:35;6.22;;;5.63;;
14768;SDS011;7476;49.404;11.152;2023-06-22T07:14:02;6.63;;;5.93;;
14768;SDS011;7476;49.404;11.152;2023-06-22T07:16:29;5.95;;;5.03;;
14768;SDS011;7476;49.404;11.152;2023-06-22T07:18:56;6.00;;;5.18;;
14768;SDS011;7476;49.404;11.152;2023-06-22T07:21:23;5.75;;;5.20;;
14768;SDS011;7476;49.404;11.152;2023-06-22T07:23:50;6.68;;;5.13;;
14768;SDS011;7476;49.404;11.152;2023-06-22T07:26:17;5.60;;;5.10;;
14768;SDS011;7476;49.404;11.152;2023-06-22T07:28:44;6.28;;;5.68;;
14768;SDS011;7476;49.404;11.152;2023-06-22T07:31:11;5.50;;;5.00;;
14768;SDS011;7476;49.404;11.152;2023-06-22T07:33:37;6.50;;;5.45;;
14768;SDS011;7476;49.404;11.152;2023-06-22T07:36:04;5.93;;;5.30;;
14768;SDS011;7476;49.404;11.152;2023-06-22T07:38:32;5.60;;;5.03;;
14768;SDS011;7476;49.404;11.152;2023-06-22T07:40:59;6.80;;;5.43;;
14768;SDS011;7476;49.404;11.152;2023-06-22T07:43:27;5.93;;;5.35;;
14768;SDS011;7476;49.404;11.152;2023-06-22T07:45:55;6.63;;;5.10;;
14768;SDS011;7476;49.404;11.152;2023-06-22T07:48:21;9.43;;;6.00;;
14768;SDS011;7476;49.404;11.152;2023-06-22T07:50:48;5.78;;;5.18;;
14768;SDS011;7476;49.404;11.152;2023-06-22T07:53:15;9.43;;;5.47;;
14768;SDS011;7476;49.404;11.152;2023-06-22T07:55:42;6.53;;;4.78;;
14768;SDS011;7476;49.404;11.152;2023-06-22T07:58:09;7.40;;;5.35;;
14768;SDS011;7476;49.404;11.152;2023-06-22T08:00:37;7.00;;;4.97;;
14768;SDS011;7476;49.404;11.152;2023-06-22T08:03:03;5.43;;;4.70;;
14768;SDS011;7476;49.404;11.152;2023-06-22T08:05:30;6.78;;;4.72;;
14768;SDS011;7476;49.404;11.152;2023-06-22T08:07:57;5.50;;;4.97;;
14768;SDS011;7476;49.404;11.152;2023-06-22T08:10:23;5.45;;;4.60;;
14768;SDS011;7476;49.404;11.152;2023-06-22T08:12:50;8.43;;;5.35;;
14768;SDS011;7476;49.404;11.152;2023-06-22T08:15:17;8.40;;;4.93;;
14768;SDS011;7476;49.404;11.152;2023-06-22T08:17:46;6.85;;;4.93;;
14768;SDS011;7476;49.404;11.152;2023-06-22T08:20:12;5.68;;;5.00;;
14768;SDS011;7476;49.404;11.152;2023-06-22T08:22:39;7.22;;;4.95;;
14768;SDS011;7476;49.404;11.152;2023-06-22T08:25:07;5.72;;;5.00;;
14768;SDS011;7476;49.404;11.152;2023-06-22T08:27:34;7.45;;;5.20;;
14768;SDS011;7476;49.404;11.152;2023-06-22T08:30:02;7.25;;;5.20;;
14768;SDS011;7476;49.404;11.152;2023-06-22T08:32:29;6.70;;;5.10;;
14768;SDS011;7476;49.404;11.152;2023-06-22T08:34:59;6.35;;;4.75;;
14768;SDS011;7476;49.404;11.152;2023-06-22T08:37:25;6.45;;;5.10;;
14768;SDS011;7476;49.404;11.152;2023-06-22T08:39:56;6.72;;;4.95;;
14768;SDS011;7476;49.404;11.152;2023-06-22T08:42:23;10.75;;;5.20;;
14768;SDS011;7476;49.404;11.152;2023-06-22T08:44:50;7.57;;;4.65;;
14768;SDS011;7476;49.404;11.152;2023-06-22T08:47:17;5.47;;;4.95;;
14768;SDS011;7476;49.404;11.152;2023-06-22T08:49:44;8.43;;;5.32;;
14768;SDS011;7476;49.404;11.152;2023-06-22T08:52:12;7.88;;;4.95;;
14768;SDS011;7476;49.404;11.152;2023-06-22T08:54:39;5.97;;;5.07;;
14768;SDS011;7476;49.404;11.152;2023-06-22T08:57:05;7.40;;;4.90;;
14768;SDS011;7476;49.404;11.152;2023-06-22T08:59:32;5.00;;;4.60;;
14768;SDS011;7476;49.404;11.152;2023-06-22T09:01:59;7.00;;;5.30;;
14768;SDS011;7476;49.404;11.152;2023-06-22T09:04:26;5.95;;;5.20;;
14768;SDS011;7476;49.404;11.152;2023-06-22T09:06:52;6.55;;;4.80;;
14768;SDS011;7476;49.404;11.152;2023-06-22T09:09:21;6.15;;;4.72;;
14768;SDS011;7476;49.404;11.152;2023-06-22T09:11:47;5.53;;;4.80;;
14768;SDS011;7476;49.404;11.152;2023-06-22T09:14:14;6.68;;;4.90;;
14768;SDS011;7476;49.404;11.152;2023-06-22T09:16:41;8.75;;;5.00;;
14768;SDS011;7476;49.404;11.152;2023-06-22T09:19:08;5.32;;;4.78;;
14768;SDS011;7476;49.404;11.152;2023-06-22T09:21:34;7.05;;;4.88;;
14768;SDS011;7476;49.404;11.152;2023-06-22T09:24:01;6.38;;;4.97;;
14768;SDS011;7476;49.404;11.152;2023-06-22T09:26:29;5.75;;;5.10;;
14768;SDS011;7476;49.404;11.152;2023-06-22T09:28:56;7.82;;;5.28;;
14768;SDS011;7476;49.404;11.152;2023-06-22T09:31:22;8.80;;;5.00;;
14768;SDS011;7476;49.404;11.152;2023-06-22T09:33:50;6.30;;;4.95;;
14768;SDS011;7476;49.404;11.152;2023-06-22T09:36:18;5.95;;;5.00;;
14768;SDS011;7476;49.404;11.152;2023-06-22T09:38:45;7.65;;;5.22;;
14768;SDS011;7476;49.404;11.152;2023-06-22T09:41:12;8.93;;;5.22;;
14768;SDS011;7476;49.404;11.152;2023-06-22T09:43:40;8.70;;;5.68;;
14768;SDS011;7476;49.404;11.152;2023-06-22T09:46:06;6.55;;;5.43;;
14768;SDS011;7476;49.404;11.152;2023-06-22T09:48:34;9.68;;;5.40;;
14768;SDS011;7476;49.404;11.152;2023-06-22T09:51:01;5.80;;;5.15;;
14768;SDS011;7476;49.404;11.152;2023-06-22T09:53:28;7.45;;;5.40;;
14768;SDS011;7476;49.404;11.152;2023-06-22T09:55:54;7.18;;;5.22;;
14768;SDS011;7476;49.404;11.152;2023-06-22T09:58:22;5.88;;;5.03;;
14768;SDS011;7476;49.404;11.152;2023-06-22T10:00:50;5.95;;;5.10;;
14768;SDS011;7476;49.404;11.152;2023-06-22T10:03:18;7.30;;;5.13;;
14768;SDS011;7476;49.404;11.152;2023-06-22T10:05:44;7.65;;;5.47;;
14768;SDS011;7476;49.404;11.152;2023-06-22T10:08:11;8.48;;;5.40;;
14768;SDS011;7476;49.404;11.152;2023-06-22T10:10:38;10.43;;;5.30;;
14768;SDS011;7476;49.404;11.152;2023-06-22T10:13:07;8.50;;;5.43;;
14768;SDS011;7476;49.404;11.152;2023-06-22T10:15:36;8.38;;;5.05;;
14768;SDS011;7476;49.404;11.152;2023-06-22T10:18:04;8.02;;;5.43;;
14768;SDS011;7476;49.404;11.152;2023-06-22T10:20:31;9.73;;;5.65;;
14768;SDS011;7476;49.404;11.152;2023-06-22T10:22:58;8.15;;;5.43;;
14768;SDS011;7476;49.404;11.152;2023-06-22T10:25:24;6.30;;;5.28;;
14768;SDS011;7476;49.404;11.152;2023-06-22T10:27:52;7.82;;;5.05;;
14768;SDS011;7476;49.404;11.152;2023-06-22T10:30:19;6.03;;;4.95;;
14768;SDS011;7476;49.404;11.152;2023-06-22T10:32:46;8.50;;;5.90;;
14768;SDS011;7476;49.404;11.152;2023-06-22T10:35:14;8.85;;;5.65;;
14768;SDS011;7476;49.404;11.152;2023-06-22T10:37:41;7.55;;;5.20;;
14768;SDS011;7476;49.404;11.152;2023-06-22T10:40:09;9.75;;;5.70;;
14768;SDS011;7476;49.404;11.152;2023-06-22T10:42:37;9.13;;;5.20;;
14768;SDS011;7476;49.404;11.152;2023-06-22T10:45:04;6.70;;;5.13;;
14768;SDS011;7476;49.404;11.152;2023-06-22T10:47:31;8.85;;;5.88;;
14768;SDS011;7476;49.404;11.152;2023-06-22T10:49:58;9.02;;;5.88;;
14768;SDS011;7476;49.404;11.152;2023-06-22T10:52:27;11.77;;;5.45;;
14768;SDS011;7476;49.404;11.152;2023-06-22T10:54:53;9.27;;;6.00;;
14768;SDS011;7476;49.404;11.152;2023-06-22T10:57:20;7.03;;;5.30;;
14768;SDS011;7476;49.404;11.152;2023-06-22T10:59:48;7.53;;;5.47;;
14768;SDS011;7476;49.404;11.152;2023-06-22T11:02:14;7.00;;;5.53;;
14768;SDS011;7476;49.404;11.152;2023-06-22T11:04:41;6.32;;;5.50;;
14768;SDS011;7476;49.404;11.152;2023-06-22T11:07:08;10.68;;;5.97;;
14768;SDS011;7476;49.404;11.152;2023-06-22T11:09:37;7.55;;;5.72;;
14768;SDS011;7476;49.404;11.152;2023-06-22T11:12:05;9.07;;;5.75;;
14768;SDS011;7476;49.404;11.152;2023-06-22T11:14:32;8.30;;;5.97;;
14768;SDS011;7476;49.404;11.152;2023-06-22T11:16:59;9.48;;;5.40;;
14768;SDS011;7476;49.404;11.152;2023-06-22T11:19:26;6.50;;;5.28;;
14768;SDS011;7476;49.404;11.152;2023-06-22T11:21:52;7.40;;;4.80;;
14768;SDS011;7476;49.404;11.152;2023-06-22T11:24:19;10.98;;;5.32;;
14768;SDS011;7476;49.404;11.152;2023-06-22T11:26:47;8.02;;;5.43;;
14768;SDS011;7476;49.404;11.152;2023-06-22T11:29:14;8.38;;;5.18;;
14768;SDS011;7476;49.404;11.152;2023-06-22T11:31:40;11.35;;;5.93;;
14768;SDS011;7476;49.404;11.152;2023-06-22T11:34:08;9.05;;;5.60;;
14768;SDS011;7476;49.404;11.152;2023-06-22T11:36:35;9.55;;;5.82;;
14768;SDS011;7476;49.404;11.152;2023-06-22T11:39:01;11.75;;;6.03;;
14768;SDS011;7476;49.404;11.152;2023-06-22T11:41:28;11.50;;;5.60;;
14768;SDS011;7476;49.404;11.152;2023-06-22T11:43:56;9.82;;;5.50;;
14768;SDS011;7476;49.404;11.152;2023-06-22T11:46:23;9.38;;;5.25;;
14768;SDS011;7476;49.404;11.152;2023-06-22T11:48:49;8.73;;;5.55;;
14768;SDS011;7476;49.404;11.152;2023-06-22T11:51:16;7.50;;;5.57;;
14768;SDS011;7476;49.404;11.152;2023-06-22T11:53:43;10.43;;;5.50;;
14768;SDS011;7476;49.404;11.152;2023-06-22T11:56:09;10.63;;;5.75;;
14768;SDS011;7476;49.404;11.152;2023-06-22T11:58:36;10.90;;;5.78;;
14768;SDS011;7476;49.404;11.152;2023-06-22T12:01:04;8.50;;;5.75;;
14768;SDS011;7476;49.404;11.152;2023-06-22T12:03:31;6.93;;;5.63;;
14768;SDS011;7476;49.404;11.152;2023-06-22T12:05:58;9.98;;;5.65;;
14768;SDS011;7476;49.404;11.152;2023-06-22T12:08:25;9.77;;;5.63;;
14768;SDS011;7476;49.404;11.152;2023-06-22T12:10:52;10.52;;;5.88;;
14768;SDS011;7476;49.404;11.152;2023-06-22T12:13:19;10.02;;;6.13;;
14768;SDS011;7476;49.404;11.152;2023-06-22T12:15:45;12.18;;;6.53;;
14768;SDS011;7476;49.404;11.152;2023-06-22T12:18:13;8.73;;;6.03;;
14768;SDS011;7476;49.404;11.152;2023-06-22T12:20:40;10.32;;;5.80;;
14768;SDS011;7476;49.404;11.152;2023-06-22T12:23:07;8.07;;;5.53;;
14768;SDS011;7476;49.404;11.152;2023-06-22T12:25:34;9.10;;;5.88;;
14768;SDS011;7476;49.404;11.152;2023-06-22T12:28:00;10.05;;;5.95;;
14768;SDS011;7476;49.404;11.152;2023-06-22T12:30:27;9.82;;;5.88;;
14768;SDS011;7476;49.404;11.152;2023-06-22T12:32:54;9.02;;;6.30;;
14768;SDS011;7476;49.404;11.152;2023-06-22T12:35:22;10.10;;;5.70;;
14768;SDS011;7476;49.404;11.152;2023-06-22T12:37:48;9.43;;;6.20;;
14768;SDS011;7476;49.404;11.152;2023-06-22T12:40:15;9.32;;;6.00;;
14768;SDS011;7476;49.404;11.152;2023-06-22T12:42:42;9.38;;;5.95;;
14768;SDS011;7476;49.404;11.152;2023-06-22T12:45:10;11.90;;;6.10;;
14768;SDS011;7476;49.404;11.152;2023-06-22T12:47:37;11.20;;;5.93;;
14768;SDS011;7476;49.404;11.152;2023-06-22T12:50:04;9.98;;;5.97;;
14768;SDS011;7476;49.404;11.152;2023-06-22T12:52:36;10.93;;;5.85;;
14768;SDS011;7476;49.404;11.152;2023-06-22T12:55:06;9.77;;;6.15;;
14768;SDS011;7476;49.404;11.152;2023-06-22T12:57:33;10.50;;;5.65;;
14768;SDS011;7476;49.404;11.152;2023-06-22T13:00:00;9.02;;;5.50;;
14768;SDS011;7476;49.404;11.152;2023-06-22T13:02:26;9.98;;;5.65;;
14768;SDS011;7476;49.404;11.152;2023-06-22T13:04:54;8.63;;;6.15;;
14768;SDS011;7476;49.404;11.152;2023-06-22T13:07:21;6.72;;;5.70;;
14768;SDS011;7476;49.404;11.152;2023-06-22T13:09:49;11.70;;;6.10;;
14768;SDS011;7476;49.404;11.152;2023-06-22T13:12:17;6.50;;;5.60;;
14768;SDS011;7476;49.404;11.152;2023-06-22T13:14:45;9.38;;;6.63;;
14768;SDS011;7476;49.404;11.152;2023-06-22T13:17:12;9.50;;;5.82;;
14768;SDS011;7476;49.404;11.152;2023-06-22T13:19:39;12.13;;;6.55;;
14768;SDS011;7476;49.404;11.152;2023-06-22T13:22:09;10.40;;;6.15;;
14768;SDS011;7476;49.404;11.152;2023-06-22T13:24:56;10.63;;;5.65;;
14768;SDS011;7476;49.404;11.152;2023-06-22T13:27:24;10.95;;;6.10;;
14768;SDS011;7476;49.404;11.152;2023-06-22T13:29:50;7.88;;;5.47;;
14768;SDS011;7476;49.404;11.152;2023-06-22T13:32:17;11.23;;;6.22;;
14768;SDS011;7476;49.404;11.152;2023-06-22T13:34:44;8.40;;;5.50;;
14768;SDS011;7476;49.404;11.152;2023-06-22T13:37:10;10.73;;;6.70;;
14768;SDS011;7476;49.404;11.152;2023-06-22T13:39:37;9.27;;;5.93;;
14768;SDS011;7476;49.404;11.152;2023-06-22T13:42:05;12.43;;;5.95;;
14768;SDS011;7476;49.404;11.152;2023-06-22T13:44:33;9.02;;;5.63;;
14768;SDS011;7476;49.404;11.152;2023-06-22T13:46:59;11.88;;;6.07;;
14768;SDS011;7476;49.404;11.152;2023-06-22T13:49:26;10.65;;;6.28;;
14768;SDS011;7476;49.404;11.152;2023-06-22T13:51:53;11.95;;;6.10;;
14768;SDS011;7476;49.404;11.152;2023-06-22T13:54:19;8.90;;;6.22;;
14768;SDS011;7476;49.404;11.152;2023-06-22T13:56:46;12.00;;;5.78;;
14768;SDS011;7476;49.404;11.152;2023-06-22T13:59:14;9.52;;;6.00;;
14768;SDS011;7476;49.404;11.152;2023-06-22T14:01:41;9.85;;;5.57;;
14768;SDS011;7476;49.404;11.152;2023-06-22T14:04:08;10.95;;;6.18;;
14768;SDS011;7476;49.404;11.152;2023-06-22T14:06:35;10.10;;;6.20;;
14768;SDS011;7476;49.404;11.152;2023-06-22T14:09:01;12.73;;;6.10;;
14768;SDS011;7476;49.404;11.152;2023-06-22T14:11:28;9.80;;;5.90;;
14768;SDS011;7476;49.404;11.152;2023-06-22T14:13:55;8.10;;;5.60;;
14768;SDS011;7476;49.404;11.152;2023-06-22T14:16:23;8.80;;;5.50;;
14768;SDS011;7476;49.404;11.152;2023-06-22T14:18:50;10.98;;;6.07;;
14768;SDS011;7476;49.404;11.152;2023-06-22T14:21:16;9.77;;;6.05;;
14768;SDS011;7476;49.404;11.152;2023-06-22T14:23:43;11.88;;;6.15;;
14768;SDS011;7476;49.404;11.152;2023-06-22T14:26:14;11.27;;;6.20;;
14768;SDS011;7476;49.404;11.152;2023-06-22T14:28:42;9.65;;;6.30;;
14768;SDS011;7476;49.404;11.152;2023-06-22T14:31:12;11.32;;;6.10;;
14768;SDS011;7476;49.404;11.152;2023-06-22T14:33:40;10.73;;;5.97;;
14768;SDS011;7476;49.404;11.152;2023-06-22T14:36:06;10.27;;;5.55;;
14768;SDS011;7476;49.404;11.152;2023-06-22T14:38:33;12.85;;;6.10;;
14768;SDS011;7476;49.404;11.152;2023-06-22T14:41:00;10.38;;;5.35;;
14768;SDS011;7476;49.404;11.152;2023-06-22T14:43:26;9.40;;;5.75;;